createdAt,value
2023-04-07T00:00:09.835Z,102405.19
2023-04-07T00:02:37.856Z,102458.22
2023-04-07T00:05:06.168Z,102461.44
2023-04-07T00:07:39.600Z,102347.94
2023-04-07T00:10:16.757Z,102452.13
2023-04-07T00:12:44.709Z,102456.41
2023-04-07T00:15:13.962Z,102447.59
2023-04-07T00:17:41.960Z,102449.66
2023-04-07T00:20:10.983Z,102417.91
2023-04-07T00:22:38.864Z,102439.28
2023-04-07T00:25:07.962Z,102439.44
2023-04-07T00:27:35.998Z,102442.16
2023-04-07T00:30:04.217Z,102439.56
2023-04-07T00:32:35.269Z,102440.59
2023-04-07T00:35:04.053Z,102446.41
2023-04-07T00:37:32.202Z,102440.97
2023-04-07T00:40:00.182Z,102432.53
2023-04-07T00:42:28.141Z,102456.13
2023-04-07T00:44:56.144Z,102457.03
2023-04-07T00:47:24.264Z,102449.41
2023-04-07T00:49:53.761Z,102402.25
2023-04-07T00:52:27.366Z,102422.34
2023-04-07T00:54:56.027Z,102445.38
2023-04-07T00:57:24.070Z,102451.88
2023-04-07T00:59:52.702Z,102449.28
2023-04-07T01:02:28.336Z,102440.34
2023-04-07T01:05:05.562Z,102364.66
2023-04-07T01:07:37.781Z,102436.56
2023-04-07T01:10:07.935Z,102418.56
2023-04-07T01:12:42.043Z,102360.13
2023-04-07T01:15:13.517Z,102421.94
2023-04-07T01:17:49.495Z,102438.13
2023-04-07T01:20:22.807Z,102433.84
2023-04-07T01:22:55.987Z,102426.09
2023-04-07T01:25:35.708Z,102430.50
2023-04-07T01:28:16.868Z,102381.53
2023-04-07T01:30:47.103Z,102421.19
2023-04-07T01:33:15.891Z,102406.13
2023-04-07T01:35:44.785Z,102425.44
2023-04-07T01:38:14.010Z,102421.06
2023-04-07T01:40:42.728Z,102414.19
2023-04-07T01:43:11.435Z,102240.66
2023-04-07T01:45:41.043Z,102422.72
2023-04-07T01:48:11.460Z,102412.38
2023-04-07T01:50:40.368Z,102421.56
2023-04-07T01:53:09.305Z,102424.91
2023-04-07T01:55:37.317Z,102375.44
2023-04-07T01:58:08.401Z,102402.25
2023-04-07T02:00:36.593Z,102419.63
2023-04-07T02:03:08.997Z,102404.06
2023-04-07T02:05:41.272Z,102414.69
2023-04-07T02:08:12.276Z,102334.00
2023-04-07T02:10:40.434Z,102430.22
2023-04-07T02:13:11.728Z,102431.00
2023-04-07T02:15:41.761Z,102435.41
2023-04-07T02:18:13.001Z,102429.44
2023-04-07T02:20:45.064Z,102252.53
2023-04-07T02:23:14.155Z,102434.13
2023-04-07T02:25:42.066Z,102259.28
2023-04-07T02:28:10.060Z,102434.91
2023-04-07T02:30:38.083Z,102430.50
2023-04-07T02:33:06.124Z,102436.72
2023-04-07T02:35:34.009Z,102426.88
2023-04-07T02:38:03.401Z,102432.84
2023-04-07T02:40:31.471Z,102438.00
2023-04-07T02:42:59.828Z,102411.84
2023-04-07T02:45:27.813Z,102446.69
2023-04-07T02:47:55.809Z,102437.75
2023-04-07T02:50:23.663Z,102414.16
2023-04-07T02:52:51.747Z,102446.41
2023-04-07T02:55:21.303Z,102436.97
2023-04-07T02:57:49.097Z,102310.81
2023-04-07T03:00:17.918Z,102421.69
2023-04-07T03:02:46.026Z,102373.75
2023-04-07T03:05:14.035Z,102431.66
2023-04-07T03:07:42.026Z,102430.50
2023-04-07T03:10:10.657Z,102434.00
2023-04-07T03:12:39.837Z,102429.72
2023-04-07T03:15:08.998Z,102433.09
2023-04-07T03:17:37.012Z,102431.41
2023-04-07T03:20:05.258Z,102433.09
2023-04-07T03:22:33.313Z,102437.34
2023-04-07T03:25:01.532Z,102410.13
2023-04-07T03:27:29.392Z,102441.47
2023-04-07T03:29:58.870Z,102444.84
2023-04-07T03:32:26.818Z,102446.53
2023-04-07T03:34:54.650Z,102449.88
2023-04-07T03:37:22.573Z,102470.59
2023-04-07T03:39:52.148Z,102460.22
2023-04-07T03:42:20.115Z,102367.72
2023-04-07T03:44:48.147Z,102439.28
2023-04-07T03:47:17.539Z,102444.44
2023-04-07T03:49:45.365Z,102442.63
2023-04-07T03:52:13.350Z,102440.03
2023-04-07T03:54:43.831Z,102450.38
2023-04-07T03:57:11.722Z,102444.44
2023-04-07T03:59:39.698Z,102457.38
2023-04-07T04:02:07.820Z,102453.88
2023-04-07T04:04:37.127Z,102449.75
2023-04-07T04:07:05.160Z,102430.56
2023-04-07T04:09:33.152Z,102454.03
2023-04-07T04:12:01.241Z,102461.78
2023-04-07T04:14:31.409Z,102455.84
2023-04-07T04:16:59.362Z,102455.84
2023-04-07T04:19:27.276Z,102444.69
2023-04-07T04:21:56.575Z,102467.34
2023-04-07T04:24:24.537Z,102469.03
2023-04-07T04:26:52.334Z,102471.63
2023-04-07T04:29:20.569Z,102380.91
2023-04-07T04:31:48.523Z,102473.44
2023-04-07T04:34:16.386Z,102479.66
2023-04-07T04:36:44.580Z,102482.25
2023-04-07T04:39:14.091Z,102480.69
2023-04-07T04:41:41.963Z,102439.19
2023-04-07T04:44:10.121Z,102472.78
2023-04-07T04:46:38.315Z,102502.59
2023-04-07T04:49:06.541Z,102497.41
2023-04-07T04:51:34.459Z,102499.72
2023-04-07T04:54:03.983Z,102504.91
2023-04-07T04:56:33.190Z,102501.53
2023-04-07T04:59:01.072Z,102483.13
2023-04-07T05:01:29.790Z,102508.53
2023-04-07T05:03:59.317Z,102484.03
2023-04-07T05:06:28.478Z,102492.19
2023-04-07T05:08:56.616Z,102511.25
2023-04-07T05:11:24.544Z,102476.50
2023-04-07T05:13:53.868Z,102513.19
2023-04-07T05:16:22.271Z,102508.03
2023-04-07T05:18:50.093Z,102503.34
2023-04-07T05:21:20.203Z,102517.09
2023-04-07T05:23:48.308Z,102522.41
2023-04-07T05:26:16.284Z,102516.47
2023-04-07T05:28:44.186Z,102517.50
2023-04-07T05:31:13.579Z,102528.91
2023-04-07T05:33:41.473Z,102493.91
2023-04-07T05:36:09.493Z,102533.84
2023-04-07T05:38:37.640Z,102534.88
2023-04-07T05:41:05.618Z,102508.69
2023-04-07T05:43:33.481Z,102539.94
2023-04-07T05:46:01.626Z,102544.19
2023-04-07T05:48:30.890Z,102537.34
2023-04-07T05:50:58.781Z,102539.03
2023-04-07T05:53:27.285Z,102539.03
2023-04-07T05:55:55.121Z,102543.44
2023-04-07T05:58:23.067Z,102484.28
2023-04-07T06:00:51.536Z,102464.59
2023-04-07T06:03:19.487Z,102545.75
2023-04-07T06:05:49.100Z,102551.84
2023-04-07T06:08:17.186Z,102549.25
2023-04-07T06:10:45.689Z,102547.69
2023-04-07T06:13:13.606Z,102549.66
2023-04-07T06:15:41.868Z,102549.00
2023-04-07T06:18:09.765Z,102547.31
2023-04-07T06:20:37.719Z,102483.38
2023-04-07T06:23:07.265Z,102550.81
2023-04-07T06:25:35.172Z,102555.22
2023-04-07T06:28:03.082Z,102550.19
2023-04-07T06:30:31.317Z,102518.16
2023-04-07T06:32:59.221Z,102526.44
2023-04-07T06:35:27.707Z,102534.22
2023-04-07T06:37:55.763Z,102556.28
2023-04-07T06:40:24.950Z,102511.03
2023-04-07T06:42:54.706Z,102490.53
2023-04-07T06:45:22.731Z,102559.75
2023-04-07T06:47:50.618Z,102564.03
2023-04-07T06:50:20.932Z,102565.22
2023-04-07T06:52:49.057Z,102569.88
2023-04-07T06:55:17.139Z,102574.28
2023-04-07T06:57:46.384Z,102569.09
2023-04-07T07:00:15.138Z,102563.94
2023-04-07T07:02:43.044Z,102564.97
2023-04-07T07:05:11.723Z,102547.06
2023-04-07T07:07:39.728Z,102568.09
2023-04-07T07:10:11.481Z,102565.38
2023-04-07T07:12:39.442Z,102563.94
2023-04-07T07:15:10.265Z,102564.47
2023-04-07T07:17:38.163Z,102499.03
2023-04-07T07:20:07.289Z,102569.28
2023-04-07T07:22:35.319Z,102571.09
2023-04-07T07:25:03.433Z,102551.25
2023-04-07T07:27:31.299Z,102575.25
2023-04-07T07:29:59.299Z,102576.16
2023-04-07T07:32:28.614Z,102551.53
2023-04-07T07:34:56.439Z,102581.22
2023-04-07T07:37:24.444Z,102574.47
2023-04-07T07:39:52.541Z,102591.97
2023-04-07T07:42:20.410Z,102581.09
2023-04-07T07:44:48.816Z,102590.19
2023-04-07T07:47:16.680Z,102589.66
2023-04-07T07:49:45.925Z,102591.72
2023-04-07T07:52:14.054Z,102559.47
2023-04-07T07:54:41.910Z,102594.06
2023-04-07T07:57:10.009Z,102510.19
2023-04-07T07:59:37.987Z,102593.28
2023-04-07T08:02:05.956Z,102597.19
2023-04-07T08:04:33.965Z,102600.03
2023-04-07T08:07:03.668Z,102598.88
2023-04-07T08:09:32.149Z,102500.22
2023-04-07T08:12:00.232Z,102587.34
2023-04-07T08:14:28.433Z,102608.72
2023-04-07T08:16:56.521Z,102557.91
2023-04-07T08:19:25.026Z,102610.66
2023-04-07T08:21:53.084Z,102586.03
2023-04-07T08:24:22.435Z,102587.06
2023-04-07T08:26:50.505Z,102615.59
2023-04-07T08:29:18.758Z,102625.47
2023-04-07T08:31:46.653Z,102630.00
2023-04-07T08:34:16.217Z,102624.03
2023-04-07T08:36:48.472Z,102578.13
2023-04-07T08:39:16.458Z,102603.28
2023-04-07T08:41:48.733Z,102625.31
2023-04-07T08:44:17.999Z,102624.53
2023-04-07T08:46:48.224Z,102622.84
2023-04-07T08:49:18.913Z,102618.97
2023-04-07T08:51:48.459Z,102618.06
2023-04-07T08:54:18.988Z,102621.44
2023-04-07T08:56:48.985Z,102608.72
2023-04-07T08:59:18.780Z,102624.94
2023-04-07T09:01:48.407Z,102612.09
2023-04-07T09:04:16.667Z,102619.47
2023-04-07T09:06:45.482Z,102625.81
2023-04-07T09:09:15.352Z,102620.63
2023-04-07T09:11:43.708Z,102624.78
2023-04-07T09:14:13.222Z,102629.31
2023-04-07T09:16:41.341Z,102623.22
2023-04-07T09:19:09.748Z,102629.31
2023-04-07T09:21:51.429Z,102625.94
2023-04-07T09:24:23.715Z,102627.00
2023-04-07T09:26:51.863Z,102582.78
2023-04-07T09:29:24.384Z,102632.16
2023-04-07T09:31:55.126Z,102633.44
2023-04-07T09:34:28.139Z,102635.53
2023-04-07T09:36:56.734Z,102616.59
2023-04-07T09:39:25.260Z,102583.16
2023-04-07T09:41:54.062Z,102649.41
2023-04-07T09:44:24.218Z,102638.78
2023-04-07T09:46:53.325Z,102651.09
2023-04-07T09:49:21.803Z,102647.84
2023-04-07T09:51:57.353Z,102646.41
2023-04-07T09:54:36.152Z,102648.22
2023-04-07T09:57:05.318Z,102654.19
2023-04-07T09:59:37.222Z,102628.50
2023-04-07T10:02:06.541Z,102654.81
2023-04-07T10:04:34.642Z,102662.75
2023-04-07T10:07:03.813Z,102635.91
2023-04-07T10:09:32.300Z,102656.53
2023-04-07T10:12:00.853Z,102561.38
2023-04-07T10:14:31.462Z,102664.19
2023-04-07T10:17:01.659Z,102665.75
2023-04-07T10:19:34.912Z,102660.94
2023-04-07T10:22:04.709Z,102655.22
2023-04-07T10:24:49.895Z,102650.25
2023-04-07T10:27:20.912Z,102662.59
2023-04-07T10:29:52.747Z,102660.78
2023-04-07T10:32:22.415Z,102655.84
2023-04-07T10:35:01.421Z,102652.84
2023-04-07T10:37:29.594Z,102654.66
2023-04-07T10:40:29.140Z,102656.34
2023-04-07T10:42:57.798Z,102634.44
2023-04-07T10:45:56.411Z,102648.94
2023-04-07T10:48:28.531Z,102664.53
2023-04-07T10:51:19.168Z,102664.78
2023-04-07T10:54:21.183Z,102670.47
2023-04-07T10:57:12.467Z,102665.53
2023-04-07T10:59:46.991Z,102670.06
2023-04-07T11:02:35.160Z,102636.75
2023-04-07T11:05:04.946Z,102661.53
2023-04-07T11:07:51.178Z,102665.56
2023-04-07T11:10:19.568Z,102549.81
2023-04-07T11:13:03.782Z,102505.38
2023-04-07T11:15:31.843Z,102678.94
2023-04-07T11:18:17.746Z,102676.22
2023-04-07T11:20:49.583Z,102676.47
2023-04-07T11:23:18.594Z,102670.72
2023-04-07T11:25:49.133Z,102661.53
2023-04-07T11:28:17.237Z,102672.91
2023-04-07T11:30:52.055Z,102676.44
2023-04-07T11:33:22.171Z,102657.38
2023-04-07T11:35:55.793Z,102671.34
2023-04-07T11:38:27.331Z,102675.00
2023-04-07T11:40:56.072Z,102631.56
2023-04-07T11:43:25.664Z,102670.41
2023-04-07T11:46:07.825Z,102664.81
2023-04-07T11:48:37.369Z,102671.16
2023-04-07T11:51:16.555Z,102671.94
2023-04-07T11:53:50.568Z,102628.13
2023-04-07T11:56:19.076Z,102676.59
2023-04-07T11:58:50.552Z,102587.94
2023-04-07T12:01:18.800Z,102633.72
2023-04-07T12:04:01.886Z,102592.47
2023-04-07T12:06:35.490Z,102672.91
2023-04-07T12:09:04.088Z,102521.97
2023-04-07T12:11:32.980Z,102688.84
2023-04-07T12:14:01.488Z,102584.22
2023-04-07T12:16:29.451Z,102628.25
2023-04-07T12:18:57.611Z,102657.81
2023-04-07T12:21:26.938Z,102681.41
2023-04-07T12:23:56.204Z,102660.78
2023-04-07T12:26:25.578Z,102681.66
2023-04-07T12:28:53.779Z,102601.47
2023-04-07T12:31:21.813Z,102651.41
2023-04-07T12:33:50.094Z,102671.19
2023-04-07T12:36:18.273Z,102671.75
2023-04-07T12:38:47.340Z,102670.41
2023-04-07T12:41:16.597Z,102634.53
2023-04-07T12:43:46.720Z,102673.31
2023-04-07T12:46:15.036Z,102665.06
2023-04-07T12:48:42.973Z,102668.03
2023-04-07T12:51:11.206Z,102669.72
2023-04-07T12:53:39.174Z,102672.44
2023-04-07T12:56:07.428Z,102663.84
2023-04-07T12:58:36.960Z,102663.19
2023-04-07T13:01:05.231Z,102658.88
2023-04-07T13:03:36.380Z,102642.56
2023-04-07T13:06:07.023Z,102663.53
2023-04-07T13:08:35.002Z,102622.06
2023-04-07T13:11:03.057Z,102656.53
2023-04-07T13:13:32.589Z,102618.31
2023-04-07T13:16:02.095Z,102618.88
2023-04-07T13:18:29.959Z,102633.50
2023-04-07T13:21:33.790Z,102638.94
2023-04-07T13:23:46.626Z,102653.72
2023-04-07T13:26:14.599Z,102659.63
2023-04-07T13:28:42.891Z,102655.78
2023-04-07T13:31:15.893Z,102595.88
2023-04-07T13:33:44.051Z,102634.44
2023-04-07T13:36:12.071Z,102643.72
2023-04-07T13:38:42.264Z,102658.44
2023-04-07T13:41:10.174Z,102654.16
2023-04-07T13:43:38.191Z,102655.06
2023-04-07T13:46:17.128Z,102648.94
2023-04-07T13:48:51.028Z,102651.31
2023-04-07T13:51:19.170Z,102647.44
2023-04-07T13:53:47.893Z,102651.53
2023-04-07T13:56:15.954Z,102639.53
2023-04-07T13:58:43.833Z,102581.94
2023-04-07T14:01:12.075Z,102640.09
2023-04-07T14:03:40.148Z,102645.19
2023-04-07T14:06:09.448Z,102648.72
2023-04-07T14:08:37.272Z,102649.72
2023-04-07T14:11:05.639Z,102646.34
2023-04-07T14:13:33.634Z,102643.63
2023-04-07T14:16:01.624Z,102632.25
2023-04-07T14:18:29.645Z,102640.66
2023-04-07T14:20:57.742Z,102649.16
2023-04-07T14:23:36.598Z,102539.59
2023-04-07T14:26:05.672Z,102636.97
2023-04-07T14:28:33.669Z,102648.53
2023-04-07T14:31:02.028Z,102642.31
2023-04-07T14:33:30.164Z,102633.69
2023-04-07T14:35:58.492Z,102641.84
2023-04-07T14:38:27.711Z,102640.25
2023-04-07T14:40:55.857Z,102635.16
2023-04-07T14:43:23.955Z,102637.09
2023-04-07T14:45:52.122Z,102614.78
2023-04-07T14:48:20.194Z,102637.88
2023-04-07T14:50:50.207Z,102552.47
2023-04-07T14:53:24.476Z,102642.19
2023-04-07T14:55:53.715Z,102645.03
2023-04-07T14:58:21.820Z,102646.84
2023-04-07T15:00:50.180Z,102640.59
2023-04-07T15:03:18.314Z,102584.06
2023-04-07T15:05:46.393Z,102637.66
2023-04-07T15:08:14.243Z,102639.25
2023-04-07T15:10:42.068Z,102635.84
2023-04-07T15:13:11.269Z,102631.53
2023-04-07T15:15:39.335Z,102639.13
2023-04-07T15:18:07.313Z,102611.13
2023-04-07T15:20:35.313Z,102600.03
2023-04-07T15:23:03.668Z,102639.25
2023-04-07T15:25:31.513Z,102620.09
2023-04-07T15:27:59.337Z,102620.31
2023-04-07T15:30:28.706Z,102629.72
2023-04-07T15:33:00.474Z,102640.59
2023-04-07T15:35:28.620Z,102636.16
2023-04-07T15:37:56.567Z,102635.69
2023-04-07T15:40:25.045Z,102641.47
2023-04-07T15:42:52.978Z,102643.03
2023-04-07T15:45:20.997Z,102641.34
2023-04-07T15:47:50.361Z,102615.38
2023-04-07T15:50:18.263Z,102639.97
2023-04-07T15:52:46.188Z,102642.44
2023-04-07T15:55:14.063Z,102528.59
2023-04-07T15:57:41.990Z,102647.66
2023-04-07T16:00:10.934Z,102603.34
2023-04-07T16:02:39.163Z,102593.38
2023-04-07T16:05:09.264Z,102651.16
2023-04-07T16:07:37.440Z,102644.81
2023-04-07T16:10:08.175Z,102652.50
2023-04-07T16:12:36.956Z,102661.34
2023-04-07T16:15:05.736Z,102663.13
2023-04-07T16:17:34.825Z,102667.19
2023-04-07T16:20:03.936Z,102662.44
2023-04-07T16:22:33.180Z,102661.28
2023-04-07T16:25:01.303Z,102664.69
2023-04-07T16:27:29.221Z,102659.00
2023-04-07T16:29:57.092Z,102577.28
2023-04-07T16:32:24.962Z,102668.59
2023-04-07T16:34:52.936Z,102674.59
2023-04-07T16:37:20.856Z,102668.00
2023-04-07T16:39:50.400Z,102681.72
2023-04-07T16:42:18.382Z,102667.06
2023-04-07T16:44:46.416Z,102677.72
2023-04-07T16:47:14.372Z,102683.59
2023-04-07T16:49:42.361Z,102666.88
2023-04-07T16:52:10.413Z,102691.69
2023-04-07T16:54:38.478Z,102690.53
2023-04-07T16:57:07.837Z,102663.06
2023-04-07T16:59:36.476Z,102695.91
2023-04-07T17:02:09.249Z,102702.31
2023-04-07T17:04:37.358Z,102698.53
2023-04-07T17:07:07.020Z,102697.63
2023-04-07T17:09:35.086Z,102701.44
2023-04-07T17:12:04.135Z,102704.81
2023-04-07T17:14:33.431Z,102701.06
2023-04-07T17:17:01.944Z,102647.63
2023-04-07T17:19:30.037Z,102710.28
2023-04-07T17:21:57.944Z,102703.03
2023-04-07T17:24:26.469Z,102715.91
2023-04-07T17:26:54.328Z,102713.06
2023-04-07T17:29:28.762Z,102713.72
2023-04-07T17:31:58.184Z,102722.94
2023-04-07T17:34:26.512Z,102700.91
2023-04-07T17:36:54.417Z,102721.66
2023-04-07T17:39:22.360Z,102690.41
2023-04-07T17:41:50.228Z,102713.88
2023-04-07T17:44:18.126Z,102729.31
2023-04-07T17:46:46.120Z,102736.19
2023-04-07T17:49:15.802Z,102732.56
2023-04-07T17:51:43.875Z,102735.94
2023-04-07T17:54:11.689Z,102736.47
2023-04-07T17:56:39.941Z,102743.47
2023-04-07T17:59:07.999Z,102741.66
2023-04-07T18:01:36.233Z,102730.25
2023-04-07T18:04:06.354Z,102739.34
2023-04-07T18:06:37.207Z,102735.72
2023-04-07T18:09:05.964Z,102741.16
2023-04-07T18:11:33.920Z,102736.50
2023-04-07T18:14:02.258Z,102751.56
2023-04-07T18:16:30.494Z,102754.03
2023-04-07T18:18:58.656Z,102758.97
2023-04-07T18:21:27.223Z,102758.03
2023-04-07T18:23:56.479Z,102758.81
2023-04-07T18:26:24.299Z,102762.19
2023-04-07T18:28:52.140Z,102759.34
2023-04-07T18:31:20.170Z,102749.47
2023-04-07T18:33:48.282Z,102764.28
2023-04-07T18:36:16.578Z,102759.88
2023-04-07T18:38:44.577Z,102771.03
2023-04-07T18:41:14.278Z,102759.47
2023-04-07T18:43:42.411Z,102767.25
2023-04-07T18:46:10.406Z,102749.88
2023-04-07T18:48:38.466Z,102671.09
2023-04-07T18:51:07.057Z,102770.25
2023-04-07T18:53:34.985Z,102784.00
2023-04-07T18:56:02.856Z,102775.97
2023-04-07T18:58:32.645Z,102769.72
2023-04-07T19:01:00.565Z,102740.25
2023-04-07T19:03:28.665Z,102697.94
2023-04-07T19:05:56.736Z,102785.16
2023-04-07T19:08:24.639Z,102781.66
2023-04-07T19:10:52.500Z,102787.63
2023-04-07T19:13:20.487Z,102750.50
2023-04-07T19:15:50.833Z,102780.50
2023-04-07T19:18:18.715Z,102782.94
2023-04-07T19:20:47.201Z,102708.53
2023-04-07T19:23:15.493Z,102790.47
2023-04-07T19:25:45.747Z,102791.25
2023-04-07T19:28:14.222Z,102773.59
2023-04-07T19:30:42.081Z,102793.84
2023-04-07T19:33:11.803Z,102799.69
2023-04-07T19:35:40.202Z,102785.78
2023-04-07T19:38:08.230Z,102790.84
2023-04-07T19:40:37.157Z,102764.63
2023-04-07T19:43:05.167Z,102795.91
2023-04-07T19:45:33.044Z,102771.50
2023-04-07T19:48:01.284Z,102774.09
2023-04-07T19:50:30.697Z,102781.75
2023-04-07T19:52:58.526Z,102782.66
2023-04-07T19:55:26.630Z,102794.59
2023-04-07T19:57:54.662Z,102775.38
2023-04-07T20:00:22.715Z,102803.28
2023-04-07T20:02:50.783Z,102756.66
2023-04-07T20:05:19.771Z,102803.16
2023-04-07T20:07:49.206Z,102802.63
2023-04-07T20:10:17.144Z,102807.31
2023-04-07T20:12:45.016Z,102802.25
2023-04-07T20:15:13.191Z,102725.50
2023-04-07T20:17:41.245Z,102764.47
2023-04-07T20:20:09.798Z,102806.53
2023-04-07T20:22:37.711Z,102812.50
2023-04-07T20:25:08.130Z,102789.38
2023-04-07T20:27:36.059Z,102800.81
2023-04-07T20:30:04.388Z,102813.78
2023-04-07T20:32:32.267Z,102811.97
2023-04-07T20:35:00.160Z,102807.69
2023-04-07T20:37:28.127Z,102801.97
2023-04-07T20:39:56.156Z,102813.50
2023-04-07T20:42:25.664Z,102811.56
2023-04-07T20:44:58.976Z,102753.22
2023-04-07T20:47:26.893Z,102808.06
2023-04-07T20:49:55.366Z,102775.47
2023-04-07T20:52:24.790Z,102800.28
2023-04-07T20:54:52.674Z,102781.03
2023-04-07T20:57:20.802Z,102751.97
2023-04-07T20:59:49.990Z,102784.69
2023-04-07T21:02:17.920Z,102802.88
2023-04-07T21:04:46.293Z,102800.28
2023-04-07T21:07:14.158Z,102804.81
2023-04-07T21:09:42.117Z,102797.94
2023-04-07T21:12:11.187Z,102693.38
2023-04-07T21:14:39.054Z,102739.09
2023-04-07T21:17:08.467Z,102812.59
2023-04-07T21:19:36.639Z,102816.09
2023-04-07T21:22:04.965Z,102822.19
2023-04-07T21:24:33.172Z,102821.28
2023-04-07T21:27:01.229Z,102817.16
2023-04-07T21:29:31.803Z,102821.56
2023-04-07T21:31:59.812Z,102825.84
2023-04-07T21:34:29.071Z,102818.06
2023-04-07T21:36:56.900Z,102822.47
2023-04-07T21:39:24.937Z,102818.97
2023-04-07T21:41:52.929Z,102822.59
2023-04-07T21:44:21.508Z,102699.59
2023-04-07T21:46:49.565Z,102791.00
2023-04-07T21:49:22.143Z,102819.34
2023-04-07T21:51:51.539Z,102833.22
2023-04-07T21:54:19.492Z,102804.38
2023-04-07T21:56:49.193Z,102828.81
2023-04-07T21:59:17.942Z,102836.59
2023-04-07T22:01:47.224Z,102821.66
2023-04-07T22:04:15.694Z,102826.84
2023-04-07T22:06:43.668Z,102830.22
2023-04-07T22:09:13.062Z,102823.44
2023-04-07T22:11:40.954Z,102833.19
2023-04-07T22:14:08.862Z,102831.38
2023-04-07T22:16:37.221Z,102824.22
2023-04-07T22:19:05.709Z,102832.78
2023-04-07T22:21:33.609Z,102825.38
2023-04-07T22:24:01.507Z,102835.22
2023-04-07T22:26:31.755Z,102849.09
2023-04-07T22:28:59.773Z,102760.16
2023-04-07T22:31:27.862Z,102670.19
2023-04-07T22:33:56.616Z,102832.00
2023-04-07T22:36:24.587Z,102807.31
2023-04-07T22:38:52.520Z,102836.00
2023-04-07T22:41:21.439Z,102832.63
2023-04-07T22:43:50.745Z,102828.09
2023-04-07T22:46:18.939Z,102835.75
2023-04-07T22:48:47.249Z,102832.38
2023-04-07T22:51:16.944Z,102847.16
2023-04-07T22:53:45.077Z,102816.19
2023-04-07T22:56:13.275Z,102800.53
2023-04-07T22:58:41.318Z,102804.44
2023-04-07T23:01:11.133Z,102826.28
2023-04-07T23:03:39.296Z,102826.13
2023-04-07T23:06:07.459Z,102825.38
2023-04-07T23:08:35.678Z,102790.34
2023-04-07T23:11:03.520Z,102833.41
2023-04-07T23:13:31.434Z,102813.53
2023-04-07T23:15:59.474Z,102810.81
2023-04-07T23:18:28.691Z,102822.50
2023-04-07T23:20:56.614Z,102817.94
2023-04-07T23:23:24.461Z,102828.09
2023-04-07T23:25:52.267Z,102817.31
2023-04-07T23:28:20.380Z,102689.53
2023-04-07T23:30:48.359Z,102831.72
2023-04-07T23:33:16.258Z,102790.16
2023-04-07T23:35:45.789Z,102834.59
2023-04-07T23:38:13.904Z,102838.09
2023-04-07T23:40:41.742Z,102835.50
2023-04-07T23:43:10.856Z,102831.38
2023-04-07T23:45:38.856Z,102837.59
2023-04-07T23:48:07.290Z,102831.00
2023-04-07T23:50:35.419Z,102834.50
2023-04-07T23:53:04.929Z,102839.03
2023-04-07T23:55:32.744Z,102844.22
2023-04-07T23:58:00.691Z,102838.91
